sensor_id;sensor_type;location;lat;lon;timestamp;temperature;humidity
26947;DHT22;14501;52.282;10.560;2022-11-24T00:01:29;4.90;99.90
26947;DHT22;14501;52.282;10.560;2022-11-24T00:03:58;4.90;99.90
26947;DHT22;14501;52.282;10.560;2022-11-24T00:06:25;4.90;99.90
26947;DHT22;14501;52.282;10.560;2022-11-24T00:08:52;4.90;99.90
26947;DHT22;14501;52.282;10.560;2022-11-24T00:11:23;4.90;99.90
26947;DHT22;14501;52.282;10.560;2022-11-24T00:13:49;4.80;99.90
26947;DHT22;14501;52.282;10.560;2022-11-24T00:18:42;4.80;99.90
26947;DHT22;14501;52.282;10.560;2022-11-24T00:21:08;4.80;99.90
26947;DHT22;14501;52.282;10.560;2022-11-24T00:23:35;4.80;99.90
26947;DHT22;14501;52.282;10.560;2022-11-24T00:26:04;4.80;99.90
26947;DHT22;14501;52.282;10.560;2022-11-24T00:28:31;4.80;99.90
26947;DHT22;14501;52.282;10.560;2022-11-24T00:30:58;4.80;99.90
26947;DHT22;14501;52.282;10.560;2022-11-24T00:33:23;4.80;99.90
26947;DHT22;14501;52.282;10.560;2022-11-24T00:35:59;4.80;99.90
26947;DHT22;14501;52.282;10.560;2022-11-24T00:38:25;4.80;99.90
26947;DHT22;14501;52.282;10.560;2022-11-24T00:40:51;4.80;99.90
26947;DHT22;14501;52.282;10.560;2022-11-24T00:43:17;4.80;99.90
26947;DHT22;14501;52.282;10.560;2022-11-24T00:45:43;4.80;99.90
26947;DHT22;14501;52.282;10.560;2022-11-24T00:48:09;4.80;99.90
26947;DHT22;14501;52.282;10.560;2022-11-24T00:50:35;4.80;99.90
26947;DHT22;14501;52.282;10.560;2022-11-24T00:53:00;4.90;99.90
26947;DHT22;14501;52.282;10.560;2022-11-24T00:55:26;4.90;99.90
26947;DHT22;14501;52.282;10.560;2022-11-24T00:57:52;4.80;99.90
26947;DHT22;14501;52.282;10.560;2022-11-24T01:00:17;4.80;99.90
26947;DHT22;14501;52.282;10.560;2022-11-24T01:02:43;4.80;99.90
26947;DHT22;14501;52.282;10.560;2022-11-24T01:05:09;4.80;99.90
26947;DHT22;14501;52.282;10.560;2022-11-24T01:07:35;4.90;99.90
26947;DHT22;14501;52.282;10.560;2022-11-24T01:10:01;4.80;99.90
26947;DHT22;14501;52.282;10.560;2022-11-24T01:12:27;4.80;99.90
26947;DHT22;14501;52.282;10.560;2022-11-24T01:14:53;4.80;99.90
26947;DHT22;14501;52.282;10.560;2022-11-24T01:17:18;4.80;99.90
26947;DHT22;14501;52.282;10.560;2022-11-24T01:19:44;4.80;99.90
26947;DHT22;14501;52.282;10.560;2022-11-24T01:22:12;4.80;99.90
26947;DHT22;14501;52.282;10.560;2022-11-24T01:24:39;4.80;99.90
26947;DHT22;14501;52.282;10.560;2022-11-24T01:27:04;4.80;99.90
26947;DHT22;14501;52.282;10.560;2022-11-24T01:29:30;4.80;99.90
26947;DHT22;14501;52.282;10.560;2022-11-24T01:31:56;4.80;99.90
26947;DHT22;14501;52.282;10.560;2022-11-24T01:34:21;4.80;99.90
26947;DHT22;14501;52.282;10.560;2022-11-24T01:36:47;4.80;99.90
26947;DHT22;14501;52.282;10.560;2022-11-24T01:39:13;4.80;99.90
26947;DHT22;14501;52.282;10.560;2022-11-24T01:41:38;4.80;99.90
26947;DHT22;14501;52.282;10.560;2022-11-24T01:44:40;4.80;99.90
26947;DHT22;14501;52.282;10.560;2022-11-24T01:49:45;4.80;99.90
26947;DHT22;14501;52.282;10.560;2022-11-24T01:52:32;4.90;99.90
26947;DHT22;14501;52.282;10.560;2022-11-24T01:55:03;4.90;99.90
26947;DHT22;14501;52.282;10.560;2022-11-24T01:57:59;5.00;99.90
26947;DHT22;14501;52.282;10.560;2022-11-24T02:00:27;4.90;99.90
26947;DHT22;14501;52.282;10.560;2022-11-24T02:02:53;4.90;99.90
26947;DHT22;14501;52.282;10.560;2022-11-24T02:05:20;4.90;99.90
26947;DHT22;14501;52.282;10.560;2022-11-24T02:07:48;4.80;99.90
26947;DHT22;14501;52.282;10.560;2022-11-24T02:10:15;4.80;99.90
26947;DHT22;14501;52.282;10.560;2022-11-24T02:12:44;4.80;99.90
26947;DHT22;14501;52.282;10.560;2022-11-24T02:15:10;4.80;99.90
26947;DHT22;14501;52.282;10.560;2022-11-24T02:17:37;4.80;99.90
26947;DHT22;14501;52.282;10.560;2022-11-24T02:20:08;4.70;99.90
26947;DHT22;14501;52.282;10.560;2022-11-24T02:28:00;4.70;99.90
26947;DHT22;14501;52.282;10.560;2022-11-24T02:30:27;4.60;99.90
26947;DHT22;14501;52.282;10.560;2022-11-24T02:32:53;4.60;99.90
26947;DHT22;14501;52.282;10.560;2022-11-24T02:35:19;4.70;99.90
26947;DHT22;14501;52.282;10.560;2022-11-24T02:37:44;4.80;99.90
26947;DHT22;14501;52.282;10.560;2022-11-24T02:40:13;4.70;99.90
26947;DHT22;14501;52.282;10.560;2022-11-24T02:42:41;4.70;99.90
26947;DHT22;14501;52.282;10.560;2022-11-24T02:45:09;4.80;99.90
26947;DHT22;14501;52.282;10.560;2022-11-24T02:47:35;4.90;99.90
26947;DHT22;14501;52.282;10.560;2022-11-24T02:50:01;4.80;99.90
26947;DHT22;14501;52.282;10.560;2022-11-24T02:52:27;4.90;99.90
26947;DHT22;14501;52.282;10.560;2022-11-24T02:54:53;4.90;99.90
26947;DHT22;14501;52.282;10.560;2022-11-24T02:57:21;4.90;99.90
26947;DHT22;14501;52.282;10.560;2022-11-24T02:59:47;5.00;99.90
26947;DHT22;14501;52.282;10.560;2022-11-24T03:02:12;5.00;99.90
26947;DHT22;14501;52.282;10.560;2022-11-24T03:04:38;5.00;99.90
26947;DHT22;14501;52.282;10.560;2022-11-24T03:07:03;5.00;99.90
26947;DHT22;14501;52.282;10.560;2022-11-24T03:09:29;4.90;99.90
26947;DHT22;14501;52.282;10.560;2022-11-24T03:11:55;5.00;99.90
26947;DHT22;14501;52.282;10.560;2022-11-24T03:14:20;5.00;99.90
26947;DHT22;14501;52.282;10.560;2022-11-24T03:16:46;5.00;99.90
26947;DHT22;14501;52.282;10.560;2022-11-24T03:19:12;5.00;99.90
26947;DHT22;14501;52.282;10.560;2022-11-24T03:21:37;5.00;99.90
26947;DHT22;14501;52.282;10.560;2022-11-24T03:24:03;5.10;99.90
26947;DHT22;14501;52.282;10.560;2022-11-24T03:26:29;5.10;99.90
26947;DHT22;14501;52.282;10.560;2022-11-24T03:28:55;5.10;99.90
26947;DHT22;14501;52.282;10.560;2022-11-24T03:31:22;5.10;99.90
26947;DHT22;14501;52.282;10.560;2022-11-24T03:33:48;5.20;99.90
26947;DHT22;14501;52.282;10.560;2022-11-24T03:36:13;5.20;99.90
26947;DHT22;14501;52.282;10.560;2022-11-24T03:38:39;5.20;99.90
26947;DHT22;14501;52.282;10.560;2022-11-24T03:41:05;5.30;99.90
26947;DHT22;14501;52.282;10.560;2022-11-24T03:43:30;5.30;99.90
26947;DHT22;14501;52.282;10.560;2022-11-24T03:45:56;5.40;99.90
26947;DHT22;14501;52.282;10.560;2022-11-24T03:48:22;5.40;99.90
26947;DHT22;14501;52.282;10.560;2022-11-24T03:50:56;5.50;99.90
26947;DHT22;14501;52.282;10.560;2022-11-24T03:53:22;5.50;99.90
26947;DHT22;14501;52.282;10.560;2022-11-24T03:55:48;5.50;99.90
26947;DHT22;14501;52.282;10.560;2022-11-24T03:58:14;5.60;99.90
26947;DHT22;14501;52.282;10.560;2022-11-24T04:00:40;5.60;99.90
26947;DHT22;14501;52.282;10.560;2022-11-24T04:03:06;5.70;99.90
26947;DHT22;14501;52.282;10.560;2022-11-24T04:05:31;5.70;99.90
26947;DHT22;14501;52.282;10.560;2022-11-24T04:07:57;5.80;99.90
26947;DHT22;14501;52.282;10.560;2022-11-24T04:10:27;5.80;99.90
26947;DHT22;14501;52.282;10.560;2022-11-24T04:12:53;5.80;99.90
26947;DHT22;14501;52.282;10.560;2022-11-24T04:15:19;5.80;99.90
26947;DHT22;14501;52.282;10.560;2022-11-24T04:17:46;5.80;99.90
26947;DHT22;14501;52.282;10.560;2022-11-24T04:20:12;5.80;99.90
26947;DHT22;14501;52.282;10.560;2022-11-24T04:22:38;5.70;99.90
26947;DHT22;14501;52.282;10.560;2022-11-24T04:25:05;5.10;99.90
26947;DHT22;14501;52.282;10.560;2022-11-24T04:27:35;5.60;99.90
26947;DHT22;14501;52.282;10.560;2022-11-24T04:30:03;5.60;99.90
26947;DHT22;14501;52.282;10.560;2022-11-24T04:32:29;5.20;99.90
26947;DHT22;14501;52.282;10.560;2022-11-24T04:34:54;5.60;99.90
26947;DHT22;14501;52.282;10.560;2022-11-24T04:37:20;5.60;99.90
26947;DHT22;14501;52.282;10.560;2022-11-24T04:39:45;5.50;99.90
26947;DHT22;14501;52.282;10.560;2022-11-24T04:42:11;5.40;99.90
26947;DHT22;14501;52.282;10.560;2022-11-24T04:44:37;5.40;99.90
26947;DHT22;14501;52.282;10.560;2022-11-24T04:47:03;5.40;99.90
26947;DHT22;14501;52.282;10.560;2022-11-24T04:49:29;5.40;99.90
26947;DHT22;14501;52.282;10.560;2022-11-24T04:51:55;5.40;99.90
26947;DHT22;14501;52.282;10.560;2022-11-24T04:54:20;5.40;99.90
26947;DHT22;14501;52.282;10.560;2022-11-24T04:56:49;5.50;99.90
26947;DHT22;14501;52.282;10.560;2022-11-24T04:59:16;5.50;99.90
26947;DHT22;14501;52.282;10.560;2022-11-24T05:01:42;5.60;99.90
26947;DHT22;14501;52.282;10.560;2022-11-24T05:04:12;5.60;99.90
26947;DHT22;14501;52.282;10.560;2022-11-24T05:06:38;5.70;99.90
26947;DHT22;14501;52.282;10.560;2022-11-24T05:09:05;5.70;99.90
26947;DHT22;14501;52.282;10.560;2022-11-24T05:11:31;5.80;99.90
26947;DHT22;14501;52.282;10.560;2022-11-24T05:13:57;5.80;99.90
26947;DHT22;14501;52.282;10.560;2022-11-24T05:16:22;5.90;99.90
26947;DHT22;14501;52.282;10.560;2022-11-24T05:18:48;5.90;99.90
26947;DHT22;14501;52.282;10.560;2022-11-24T05:21:14;5.90;99.90
26947;DHT22;14501;52.282;10.560;2022-11-24T05:23:39;6.00;99.90
26947;DHT22;14501;52.282;10.560;2022-11-24T05:26:05;6.00;99.90
26947;DHT22;14501;52.282;10.560;2022-11-24T05:28:31;6.00;99.90
26947;DHT22;14501;52.282;10.560;2022-11-24T05:31:03;6.00;99.90
26947;DHT22;14501;52.282;10.560;2022-11-24T05:33:29;6.00;99.90
26947;DHT22;14501;52.282;10.560;2022-11-24T05:36:02;6.00;99.90
26947;DHT22;14501;52.282;10.560;2022-11-24T05:38:28;6.00;99.90
26947;DHT22;14501;52.282;10.560;2022-11-24T05:41:04;6.00;99.90
26947;DHT22;14501;52.282;10.560;2022-11-24T05:43:30;6.00;99.90
26947;DHT22;14501;52.282;10.560;2022-11-24T05:46:00;5.90;99.90
26947;DHT22;14501;52.282;10.560;2022-11-24T05:48:26;5.80;99.90
26947;DHT22;14501;52.282;10.560;2022-11-24T05:50:56;5.80;99.90
26947;DHT22;14501;52.282;10.560;2022-11-24T05:53:23;5.80;99.90
26947;DHT22;14501;52.282;10.560;2022-11-24T05:55:50;5.70;99.90
26947;DHT22;14501;52.282;10.560;2022-11-24T05:58:15;5.80;99.90
26947;DHT22;14501;52.282;10.560;2022-11-24T06:00:41;5.70;99.90
26947;DHT22;14501;52.282;10.560;2022-11-24T06:03:08;5.70;99.90
26947;DHT22;14501;52.282;10.560;2022-11-24T06:05:34;5.70;99.90
26947;DHT22;14501;52.282;10.560;2022-11-24T06:08:00;5.70;99.90
26947;DHT22;14501;52.282;10.560;2022-11-24T06:10:26;5.70;99.90
26947;DHT22;14501;52.282;10.560;2022-11-24T06:12:51;5.70;99.90
26947;DHT22;14501;52.282;10.560;2022-11-24T06:15:17;5.60;99.90
26947;DHT22;14501;52.282;10.560;2022-11-24T06:17:43;5.60;99.90
26947;DHT22;14501;52.282;10.560;2022-11-24T06:20:10;5.60;99.90
26947;DHT22;14501;52.282;10.560;2022-11-24T06:22:36;5.60;99.90
26947;DHT22;14501;52.282;10.560;2022-11-24T06:25:02;5.50;99.90
26947;DHT22;14501;52.282;10.560;2022-11-24T06:27:27;5.60;99.90
26947;DHT22;14501;52.282;10.560;2022-11-24T06:29:53;5.70;99.90
26947;DHT22;14501;52.282;10.560;2022-11-24T06:32:18;5.70;99.90
26947;DHT22;14501;52.282;10.560;2022-11-24T06:34:44;5.70;99.90
26947;DHT22;14501;52.282;10.560;2022-11-24T06:37:10;5.80;99.90
26947;DHT22;14501;52.282;10.560;2022-11-24T06:39:35;5.70;99.90
26947;DHT22;14501;52.282;10.560;2022-11-24T06:42:02;5.70;99.90
26947;DHT22;14501;52.282;10.560;2022-11-24T06:44:28;5.70;99.90
26947;DHT22;14501;52.282;10.560;2022-11-24T06:46:54;5.70;99.90
26947;DHT22;14501;52.282;10.560;2022-11-24T06:49:19;5.60;99.90
26947;DHT22;14501;52.282;10.560;2022-11-24T06:51:45;5.50;99.90
26947;DHT22;14501;52.282;10.560;2022-11-24T06:54:16;5.50;99.90
26947;DHT22;14501;52.282;10.560;2022-11-24T06:56:42;5.40;99.90
26947;DHT22;14501;52.282;10.560;2022-11-24T06:59:19;5.50;99.90
26947;DHT22;14501;52.282;10.560;2022-11-24T07:01:45;5.50;99.90
26947;DHT22;14501;52.282;10.560;2022-11-24T07:04:11;5.40;99.90
26947;DHT22;14501;52.282;10.560;2022-11-24T07:06:37;5.40;99.90
26947;DHT22;14501;52.282;10.560;2022-11-24T07:09:06;5.40;99.90
26947;DHT22;14501;52.282;10.560;2022-11-24T07:11:31;5.40;99.90
26947;DHT22;14501;52.282;10.560;2022-11-24T07:13:57;5.50;99.90
26947;DHT22;14501;52.282;10.560;2022-11-24T07:16:24;5.50;99.90
26947;DHT22;14501;52.282;10.560;2022-11-24T07:18:51;5.60;99.90
26947;DHT22;14501;52.282;10.560;2022-11-24T07:21:18;5.70;99.90
26947;DHT22;14501;52.282;10.560;2022-11-24T07:23:47;5.70;99.90
26947;DHT22;14501;52.282;10.560;2022-11-24T07:26:13;5.80;99.90
26947;DHT22;14501;52.282;10.560;2022-11-24T07:28:39;5.90;99.90
26947;DHT22;14501;52.282;10.560;2022-11-24T07:33:31;6.20;99.90
26947;DHT22;14501;52.282;10.560;2022-11-24T07:35:58;6.30;99.90
26947;DHT22;14501;52.282;10.560;2022-11-24T07:38:24;6.40;99.90
26947;DHT22;14501;52.282;10.560;2022-11-24T07:40:50;6.50;99.90
26947;DHT22;14501;52.282;10.560;2022-11-24T07:43:16;6.60;99.90
26947;DHT22;14501;52.282;10.560;2022-11-24T07:45:42;6.70;99.90
26947;DHT22;14501;52.282;10.560;2022-11-24T07:48:07;6.80;99.90
26947;DHT22;14501;52.282;10.560;2022-11-24T07:50:34;7.00;99.90
26947;DHT22;14501;52.282;10.560;2022-11-24T07:53:04;7.10;99.90
26947;DHT22;14501;52.282;10.560;2022-11-24T07:55:30;7.20;99.90
26947;DHT22;14501;52.282;10.560;2022-11-24T07:57:59;7.30;99.90
26947;DHT22;14501;52.282;10.560;2022-11-24T08:00:25;7.40;99.90
26947;DHT22;14501;52.282;10.560;2022-11-24T08:02:52;7.40;99.90
26947;DHT22;14501;52.282;10.560;2022-11-24T08:05:17;7.50;99.90
26947;DHT22;14501;52.282;10.560;2022-11-24T08:07:43;7.50;99.90
26947;DHT22;14501;52.282;10.560;2022-11-24T08:10:09;7.60;99.90
26947;DHT22;14501;52.282;10.560;2022-11-24T08:12:34;7.60;99.90
26947;DHT22;14501;52.282;10.560;2022-11-24T08:15:00;7.70;99.90
26947;DHT22;14501;52.282;10.560;2022-11-24T08:17:27;7.70;99.90
26947;DHT22;14501;52.282;10.560;2022-11-24T08:19:53;7.80;99.90
26947;DHT22;14501;52.282;10.560;2022-11-24T08:22:19;7.80;99.90
26947;DHT22;14501;52.282;10.560;2022-11-24T08:24:44;7.90;99.90
26947;DHT22;14501;52.282;10.560;2022-11-24T08:27:14;7.90;99.90
26947;DHT22;14501;52.282;10.560;2022-11-24T08:29:40;8.00;99.90
26947;DHT22;14501;52.282;10.560;2022-11-24T08:32:07;8.10;99.90
26947;DHT22;14501;52.282;10.560;2022-11-24T08:34:32;8.20;99.90
26947;DHT22;14501;52.282;10.560;2022-11-24T08:36:58;8.30;99.90
26947;DHT22;14501;52.282;10.560;2022-11-24T08:39:24;8.30;99.90
26947;DHT22;14501;52.282;10.560;2022-11-24T08:41:49;8.30;99.90
26947;DHT22;14501;52.282;10.560;2022-11-24T08:44:15;8.20;99.90
26947;DHT22;14501;52.282;10.560;2022-11-24T08:46:43;8.20;99.90
26947;DHT22;14501;52.282;10.560;2022-11-24T08:49:09;8.10;99.90
26947;DHT22;14501;52.282;10.560;2022-11-24T08:51:35;8.00;99.90
26947;DHT22;14501;52.282;10.560;2022-11-24T08:54:01;8.10;99.90
26947;DHT22;14501;52.282;10.560;2022-11-24T08:56:29;8.10;99.90
26947;DHT22;14501;52.282;10.560;2022-11-24T08:58:55;8.10;99.90
26947;DHT22;14501;52.282;10.560;2022-11-24T09:01:21;8.10;99.90
26947;DHT22;14501;52.282;10.560;2022-11-24T09:03:48;8.10;99.90
26947;DHT22;14501;52.282;10.560;2022-11-24T09:06:15;8.20;99.90
26947;DHT22;14501;52.282;10.560;2022-11-24T09:08:41;8.20;99.90
26947;DHT22;14501;52.282;10.560;2022-11-24T09:11:11;8.20;99.90
26947;DHT22;14501;52.282;10.560;2022-11-24T09:13:38;8.30;99.90
26947;DHT22;14501;52.282;10.560;2022-11-24T09:16:10;8.40;99.90
26947;DHT22;14501;52.282;10.560;2022-11-24T09:18:36;8.50;99.90
26947;DHT22;14501;52.282;10.560;2022-11-24T09:21:13;8.60;99.90
26947;DHT22;14501;52.282;10.560;2022-11-24T09:23:40;8.70;99.90
26947;DHT22;14501;52.282;10.560;2022-11-24T09:26:11;8.70;99.90
26947;DHT22;14501;52.282;10.560;2022-11-24T09:28:38;8.80;99.90
26947;DHT22;14501;52.282;10.560;2022-11-24T09:31:06;9.00;99.90
26947;DHT22;14501;52.282;10.560;2022-11-24T09:33:33;9.20;99.90
26947;DHT22;14501;52.282;10.560;2022-11-24T09:35:59;9.40;99.90
26947;DHT22;14501;52.282;10.560;2022-11-24T09:38:26;9.50;99.90
26947;DHT22;14501;52.282;10.560;2022-11-24T09:40:52;9.60;99.90
26947;DHT22;14501;52.282;10.560;2022-11-24T09:43:38;9.70;99.90
26947;DHT22;14501;52.282;10.560;2022-11-24T09:49:23;10.00;99.90
26947;DHT22;14501;52.282;10.560;2022-11-24T09:51:54;10.10;99.90
26947;DHT22;14501;52.282;10.560;2022-11-24T09:54:27;10.30;99.90
26947;DHT22;14501;52.282;10.560;2022-11-24T09:56:55;10.40;99.90
26947;DHT22;14501;52.282;10.560;2022-11-24T09:59:23;10.70;99.90
26947;DHT22;14501;52.282;10.560;2022-11-24T10:01:50;10.90;99.90
26947;DHT22;14501;52.282;10.560;2022-11-24T10:04:38;11.00;99.90
26947;DHT22;14501;52.282;10.560;2022-11-24T10:15:30;11.70;99.90
26947;DHT22;14501;52.282;10.560;2022-11-24T10:25:59;11.30;99.90
26947;DHT22;14501;52.282;10.560;2022-11-24T10:28:31;11.30;99.90
26947;DHT22;14501;52.282;10.560;2022-11-24T10:31:22;11.20;99.90
26947;DHT22;14501;52.282;10.560;2022-11-24T10:33:49;11.10;99.90
26947;DHT22;14501;52.282;10.560;2022-11-24T10:36:40;11.00;99.90
26947;DHT22;14501;52.282;10.560;2022-11-24T10:39:34;11.00;99.90
26947;DHT22;14501;52.282;10.560;2022-11-24T10:42:22;11.00;99.90
26947;DHT22;14501;52.282;10.560;2022-11-24T10:45:15;11.00;99.90
26947;DHT22;14501;52.282;10.560;2022-11-24T10:47:42;11.10;99.90
26947;DHT22;14501;52.282;10.560;2022-11-24T10:50:34;10.90;99.90
26947;DHT22;14501;52.282;10.560;2022-11-24T10:58:27;10.80;99.90
26947;DHT22;14501;52.282;10.560;2022-11-24T11:00:55;10.90;99.90
26947;DHT22;14501;52.282;10.560;2022-11-24T11:03:26;10.90;99.90
26947;DHT22;14501;52.282;10.560;2022-11-24T11:06:09;10.80;99.90
26947;DHT22;14501;52.282;10.560;2022-11-24T11:08:35;10.80;99.90
26947;DHT22;14501;52.282;10.560;2022-11-24T11:11:20;10.70;99.90
26947;DHT22;14501;52.282;10.560;2022-11-24T11:18:54;10.70;99.90
26947;DHT22;14501;52.282;10.560;2022-11-24T11:23:53;11.10;99.90
26947;DHT22;14501;52.282;10.560;2022-11-24T11:31:35;12.10;99.90
26947;DHT22;14501;52.282;10.560;2022-11-24T11:34:12;12.20;99.90
26947;DHT22;14501;52.282;10.560;2022-11-24T11:36:42;12.50;99.90
26947;DHT22;14501;52.282;10.560;2022-11-24T11:39:33;12.60;99.90
26947;DHT22;14501;52.282;10.560;2022-11-24T11:50:45;13.10;99.90
26947;DHT22;14501;52.282;10.560;2022-11-24T11:53:25;13.10;99.90
26947;DHT22;14501;52.282;10.560;2022-11-24T12:04:28;12.80;99.90
26947;DHT22;14501;52.282;10.560;2022-11-24T12:21:16;12.00;99.90
26947;DHT22;14501;52.282;10.560;2022-11-24T12:27:04;11.90;99.90
26947;DHT22;14501;52.282;10.560;2022-11-24T12:43:26;11.40;99.90
26947;DHT22;14501;52.282;10.560;2022-11-24T12:46:03;11.40;99.90
26947;DHT22;14501;52.282;10.560;2022-11-24T12:51:36;11.80;99.90
26947;DHT22;14501;52.282;10.560;2022-11-24T12:54:05;11.90;99.90
26947;DHT22;14501;52.282;10.560;2022-11-24T13:05:11;12.10;99.90
26947;DHT22;14501;52.282;10.560;2022-11-24T13:07:49;12.30;99.90
26947;DHT22;14501;52.282;10.560;2022-11-24T13:12:59;12.10;99.90
26947;DHT22;14501;52.282;10.560;2022-11-24T13:15:26;11.90;99.90
26947;DHT22;14501;52.282;10.560;2022-11-24T13:17:53;11.70;99.90
26947;DHT22;14501;52.282;10.560;2022-11-24T13:22:56;11.40;99.90
26947;DHT22;14501;52.282;10.560;2022-11-24T13:25:25;11.40;99.90
26947;DHT22;14501;52.282;10.560;2022-11-24T13:27:56;11.40;99.90
26947;DHT22;14501;52.282;10.560;2022-11-24T13:35:38;11.30;99.90
26947;DHT22;14501;52.282;10.560;2022-11-24T13:38:40;11.20;99.90
26947;DHT22;14501;52.282;10.560;2022-11-24T13:41:10;11.00;99.90
26947;DHT22;14501;52.282;10.560;2022-11-24T13:47:06;11.00;99.90
26947;DHT22;14501;52.282;10.560;2022-11-24T13:49:46;11.00;99.90
26947;DHT22;14501;52.282;10.560;2022-11-24T13:54:59;11.10;99.90
26947;DHT22;14501;52.282;10.560;2022-11-24T13:57:38;11.10;99.90
26947;DHT22;14501;52.282;10.560;2022-11-24T14:02:43;11.00;99.90
26947;DHT22;14501;52.282;10.560;2022-11-24T14:05:14;10.90;99.90
26947;DHT22;14501;52.282;10.560;2022-11-24T14:07:44;10.80;99.90
26947;DHT22;14501;52.282;10.560;2022-11-24T14:10:16;10.70;99.90
26947;DHT22;14501;52.282;10.560;2022-11-24T14:12:43;10.70;99.90
26947;DHT22;14501;52.282;10.560;2022-11-24T14:17:45;10.70;99.90
26947;DHT22;14501;52.282;10.560;2022-11-24T14:20:25;10.60;99.90
26947;DHT22;14501;52.282;10.560;2022-11-24T14:22:52;10.70;99.90
26947;DHT22;14501;52.282;10.560;2022-11-24T14:27:51;10.50;99.90
26947;DHT22;14501;52.282;10.560;2022-11-24T14:30:20;10.40;99.90
26947;DHT22;14501;52.282;10.560;2022-11-24T14:32:56;10.40;99.90
26947;DHT22;14501;52.282;10.560;2022-11-24T14:35:23;10.30;99.90
26947;DHT22;14501;52.282;10.560;2022-11-24T14:37:49;10.30;99.90
26947;DHT22;14501;52.282;10.560;2022-11-24T14:40:38;10.20;99.90
26947;DHT22;14501;52.282;10.560;2022-11-24T14:43:14;10.20;99.90
26947;DHT22;14501;52.282;10.560;2022-11-24T14:45:48;10.20;99.90
26947;DHT22;14501;52.282;10.560;2022-11-24T14:48:15;10.10;99.90
26947;DHT22;14501;52.282;10.560;2022-11-24T14:50:42;10.10;99.90
26947;DHT22;14501;52.282;10.560;2022-11-24T14:53:14;10.10;99.90
26947;DHT22;14501;52.282;10.560;2022-11-24T14:55:40;10.00;99.90
26947;DHT22;14501;52.282;10.560;2022-11-24T14:58:28;10.00;99.90
26947;DHT22;14501;52.282;10.560;2022-11-24T15:06:35;9.90;99.90
26947;DHT22;14501;52.282;10.560;2022-11-24T15:09:01;9.80;99.90
26947;DHT22;14501;52.282;10.560;2022-11-24T15:11:31;9.80;99.90
26947;DHT22;14501;52.282;10.560;2022-11-24T15:13:57;9.70;99.90
26947;DHT22;14501;52.282;10.560;2022-11-24T15:16:25;9.70;99.90
26947;DHT22;14501;52.282;10.560;2022-11-24T15:18:59;9.60;99.90
26947;DHT22;14501;52.282;10.560;2022-11-24T15:21:33;9.50;99.90
26947;DHT22;14501;52.282;10.560;2022-11-24T15:24:16;9.40;99.90
26947;DHT22;14501;52.282;10.560;2022-11-24T15:26:43;9.30;99.90
26947;DHT22;14501;52.282;10.560;2022-11-24T15:29:10;9.20;99.90
26947;DHT22;14501;52.282;10.560;2022-11-24T15:31:36;9.10;99.90
26947;DHT22;14501;52.282;10.560;2022-11-24T15:34:02;9.00;99.90
26947;DHT22;14501;52.282;10.560;2022-11-24T15:36:28;8.90;99.90
26947;DHT22;14501;52.282;10.560;2022-11-24T15:38:53;8.80;99.90
26947;DHT22;14501;52.282;10.560;2022-11-24T15:41:21;8.70;99.90
26947;DHT22;14501;52.282;10.560;2022-11-24T15:43:47;8.60;99.90
26947;DHT22;14501;52.282;10.560;2022-11-24T15:46:13;8.50;99.90
26947;DHT22;14501;52.282;10.560;2022-11-24T15:48:38;8.40;99.90
26947;DHT22;14501;52.282;10.560;2022-11-24T15:51:12;8.30;99.90
26947;DHT22;14501;52.282;10.560;2022-11-24T15:53:41;8.30;99.90
26947;DHT22;14501;52.282;10.560;2022-11-24T15:56:14;8.20;99.90
26947;DHT22;14501;52.282;10.560;2022-11-24T15:58:43;8.20;99.90
26947;DHT22;14501;52.282;10.560;2022-11-24T16:01:08;8.10;99.90
26947;DHT22;14501;52.282;10.560;2022-11-24T16:03:34;8.10;99.90
26947;DHT22;14501;52.282;10.560;2022-11-24T16:06:00;8.00;99.90
26947;DHT22;14501;52.282;10.560;2022-11-24T16:08:25;7.80;99.90
26947;DHT22;14501;52.282;10.560;2022-11-24T16:10:51;7.80;99.90
26947;DHT22;14501;52.282;10.560;2022-11-24T16:13:16;7.70;99.90
26947;DHT22;14501;52.282;10.560;2022-11-24T16:15:43;7.50;99.90
26947;DHT22;14501;52.282;10.560;2022-11-24T16:18:09;7.40;99.90
26947;DHT22;14501;52.282;10.560;2022-11-24T16:20:35;7.30;99.90
26947;DHT22;14501;52.282;10.560;2022-11-24T16:23:03;7.20;99.90
26947;DHT22;14501;52.282;10.560;2022-11-24T16:25:30;7.10;99.90
26947;DHT22;14501;52.282;10.560;2022-11-24T16:27:56;7.00;99.90
26947;DHT22;14501;52.282;10.560;2022-11-24T16:30:22;6.90;99.90
26947;DHT22;14501;52.282;10.560;2022-11-24T16:32:47;6.80;99.90
26947;DHT22;14501;52.282;10.560;2022-11-24T16:35:13;6.80;99.90
26947;DHT22;14501;52.282;10.560;2022-11-24T16:37:39;6.80;99.90
26947;DHT22;14501;52.282;10.560;2022-11-24T16:40:05;6.60;99.90
26947;DHT22;14501;52.282;10.560;2022-11-24T16:42:31;6.70;99.90
26947;DHT22;14501;52.282;10.560;2022-11-24T16:44:56;6.60;99.90
26947;DHT22;14501;52.282;10.560;2022-11-24T16:47:22;6.60;99.90
26947;DHT22;14501;52.282;10.560;2022-11-24T16:49:48;6.60;99.90
26947;DHT22;14501;52.282;10.560;2022-11-24T16:52:14;6.60;99.90
26947;DHT22;14501;52.282;10.560;2022-11-24T16:54:40;6.70;99.90
26947;DHT22;14501;52.282;10.560;2022-11-24T16:57:06;6.70;99.90
26947;DHT22;14501;52.282;10.560;2022-11-24T16:59:32;6.80;99.90
26947;DHT22;14501;52.282;10.560;2022-11-24T17:01:58;6.80;99.90
26947;DHT22;14501;52.282;10.560;2022-11-24T17:04:24;6.90;99.90
26947;DHT22;14501;52.282;10.560;2022-11-24T17:06:50;7.00;99.90
26947;DHT22;14501;52.282;10.560;2022-11-24T17:09:16;7.10;99.90
26947;DHT22;14501;52.282;10.560;2022-11-24T17:11:43;7.10;99.90
26947;DHT22;14501;52.282;10.560;2022-11-24T17:14:09;7.20;99.90
26947;DHT22;14501;52.282;10.560;2022-11-24T17:16:36;7.20;99.90
26947;DHT22;14501;52.282;10.560;2022-11-24T17:19:02;7.30;99.90
26947;DHT22;14501;52.282;10.560;2022-11-24T17:21:27;7.40;99.90
26947;DHT22;14501;52.282;10.560;2022-11-24T17:23:58;7.40;99.90
26947;DHT22;14501;52.282;10.560;2022-11-24T17:26:25;7.40;99.90
26947;DHT22;14501;52.282;10.560;2022-11-24T17:28:51;7.50;99.90
26947;DHT22;14501;52.282;10.560;2022-11-24T17:31:26;7.50;99.90
26947;DHT22;14501;52.282;10.560;2022-11-24T17:33:53;7.50;99.90
26947;DHT22;14501;52.282;10.560;2022-11-24T17:36:19;7.50;99.90
26947;DHT22;14501;52.282;10.560;2022-11-24T17:38:45;7.60;99.90
26947;DHT22;14501;52.282;10.560;2022-11-24T17:41:14;7.60;99.90
26947;DHT22;14501;52.282;10.560;2022-11-24T17:43:39;7.60;99.90
26947;DHT22;14501;52.282;10.560;2022-11-24T17:46:05;7.60;99.90
26947;DHT22;14501;52.282;10.560;2022-11-24T17:48:31;7.60;99.90
26947;DHT22;14501;52.282;10.560;2022-11-24T17:53:37;7.50;99.90
26947;DHT22;14501;52.282;10.560;2022-11-24T17:56:04;7.50;99.90
26947;DHT22;14501;52.282;10.560;2022-11-24T17:58:32;7.40;99.90